East Brady, Pennsylvania
Current Conditions -  °F | °C
As of 2:55 PM on Tuesday 21 Oct 2014 (Local Time) from KBTP Reporting Station
Overcast Overcast  
Wind Chill: 52°   Ceiling: 3300
Heat Index: 52°   Visibility: 10mi
Dew Point: 45°   Wind: 8mph
Humidity: 76%   Direction: 320°NW
Pressure: 29.9"   Gusts: NA
Location:  40.99°N, 79.61°W
Report Text: KBTP 211855Z AUTO 32007KT 290V020 10SM SCT015 BKN033 OVC050 11/07 A2990 RMK AO1
Loading
Personal Weather Stations






























Interactive Weather Map
Tropical Storm Tracking
New forecast layout! Learn more

10-Day Weather Forecast

Advertisements
Track Severe Weather on mobile